Time;durP1;ratioP1;P1;durP2;ratioP2;P2;SDS_P1;SDS_P2;PMS_P1;PMS_P2;Temp;Humidity;BMP_temperature;BMP_pressure;BME280_temperature;BME280_humidity;BME280_pressure;Samples;Min_cycle;Max_cycle;Signal;HPM_P1;HPM_P2
2022/06/28 00:01:42;;;;;;;4.45;3.80;;;;;;;16.55;66.25;101975.88;4972878;28;20122;-65
2022/06/28 00:04:07;;;;;;;5.07;3.83;;;;;;;16.56;66.33;101977.56;4978167;28;20118;-65
2022/06/28 00:06:33;;;;;;;4.72;3.88;;;;;;;16.52;66.38;101981.19;4976339;28;20029;-65
2022/06/28 00:08:58;;;;;;;6.15;4.15;;;;;;;16.47;66.34;101979.19;4983027;28;20507;-65
2022/06/28 00:11:24;;;;;;;4.70;3.88;;;;;;;16.50;66.25;101978.63;4962487;28;20035;-64
2022/06/28 00:13:50;;;;;;;5.18;4.20;;;;;;;16.47;66.02;101972.72;4985319;28;20019;-65
2022/06/28 00:16:16;;;;;;;4.50;3.58;;;;;;;16.40;66.18;101973.78;4971341;28;20374;-65
2022/06/28 00:18:43;;;;;;;6.80;3.88;;;;;;;16.39;66.33;101977.69;4973623;28;20077;-64
2022/06/28 00:21:09;;;;;;;4.63;3.63;;;;;;;16.37;66.11;101977.09;4976281;28;20036;-65
2022/06/28 00:23:37;;;;;;;3.97;3.58;;;;;;;16.34;66.19;101972.03;4969203;28;20033;-65
2022/06/28 00:26:03;;;;;;;4.68;3.63;;;;;;;16.35;66.08;101981.31;4977095;28;20045;-66
2022/06/28 00:28:28;;;;;;;6.18;3.60;;;;;;;16.30;66.08;101975.63;4967505;28;20502;-66
2022/06/28 00:30:54;;;;;;;5.10;3.70;;;;;;;16.28;66.05;101987.09;4969182;28;20033;-66
2022/06/28 00:33:19;;;;;;;4.47;3.72;;;;;;;16.25;66.13;101992.38;4969547;28;20073;-66
2022/06/28 00:35:45;;;;;;;4.45;3.65;;;;;;;16.22;66.38;101987.31;4970350;28;20078;-66
2022/06/28 00:38:11;;;;;;;5.75;3.78;;;;;;;16.16;66.35;101992.03;4985986;28;20488;-66
2022/06/28 00:40:45;;;;;;;5.15;3.50;;;;;;;16.16;66.73;101992.84;4991147;28;20031;-66
2022/06/28 00:43:11;;;;;;;6.90;4.00;;;;;;;16.15;66.54;101988.38;4970882;28;20026;-66
2022/06/28 00:45:36;;;;;;;4.88;3.40;;;;;;;16.14;66.23;101989.47;4970541;28;20035;-66
2022/06/28 00:48:02;;;;;;;4.57;3.90;;;;;;;16.15;66.36;101988.38;4971559;28;20038;-66
2022/06/28 00:50:31;;;;;;;4.63;3.40;;;;;;;16.13;66.42;101998.13;4972807;28;20031;-66
2022/06/28 00:53:07;;;;;;;4.32;3.70;;;;;;;16.09;66.54;101989.41;4969921;28;20561;-66
2022/06/28 00:55:32;;;;;;;5.75;4.00;;;;;;;16.10;66.38;101991.09;4970810;28;20035;-66
2022/06/28 00:57:58;;;;;;;5.30;3.80;;;;;;;16.07;66.44;101993.56;4971097;28;20034;-66
2022/06/28 01:00:23;;;;;;;4.47;3.72;;;;;;;16.11;66.26;102000.34;4971337;28;20038;-66
2022/06/28 01:02:49;;;;;;;4.00;3.60;;;;;;;16.11;66.12;101994.75;4972679;28;20031;-66
2022/06/28 01:05:14;;;;;;;5.22;3.92;;;;;;;16.07;66.37;101990.78;4970279;28;20035;-66
2022/06/28 01:07:40;;;;;;;5.75;4.30;;;;;;;16.04;66.02;101988.53;4974725;28;20031;-66
2022/06/28 01:10:06;;;;;;;6.07;4.00;;;;;;;16.00;66.32;101995.75;4979783;28;20029;-66
2022/06/28 01:12:31;;;;;;;6.60;3.90;;;;;;;16.00;66.26;101990.16;4975768;28;20019;-66
2022/06/28 01:14:57;;;;;;;5.90;3.80;;;;;;;16.01;66.17;101991.84;4974641;28;20482;-66
2022/06/28 01:17:22;;;;;;;6.25;4.35;;;;;;;15.98;66.19;101995.16;4987388;28;20418;-66
2022/06/28 01:19:48;;;;;;;6.75;3.65;;;;;;;15.96;66.22;101995.44;4972273;28;20133;-66
2022/06/28 01:22:16;;;;;;;5.20;3.90;;;;;;;15.97;66.17;101993.47;4976724;28;20061;-66
2022/06/28 01:24:41;;;;;;;4.72;4.10;;;;;;;15.86;66.46;101989.69;4972708;28;20402;-66
2022/06/28 01:27:07;;;;;;;5.25;4.00;;;;;;;15.93;66.25;102004.34;4985238;28;20030;-66
2022/06/28 01:29:32;;;;;;;5.80;4.00;;;;;;;15.88;66.36;101995.88;4973110;28;20096;-66
2022/06/28 01:31:58;;;;;;;5.15;4.25;;;;;;;15.85;66.14;102011.25;4989483;28;20559;-66
2022/06/28 01:34:23;;;;;;;9.13;4.30;;;;;;;15.88;66.11;102004.28;4974774;28;20030;-66
2022/06/28 01:36:49;;;;;;;5.93;4.28;;;;;;;15.86;65.96;102007.34;4982256;28;20034;-66
2022/06/28 01:39:15;;;;;;;7.05;4.25;;;;;;;15.85;66.17;102004.81;4971472;28;20390;-66
2022/06/28 01:41:40;;;;;;;4.28;3.88;;;;;;;15.84;66.18;102009.56;4978572;28;20050;-66
2022/06/28 01:44:08;;;;;;;6.45;4.28;;;;;;;15.83;66.15;102007.00;4975618;28;20029;-66
2022/06/28 01:46:36;;;;;;;6.00;4.25;;;;;;;15.80;66.09;102010.31;4974381;28;20565;-66
2022/06/28 01:49:04;;;;;;;5.80;4.38;;;;;;;15.79;66.00;102017.88;4987202;28;20026;-66
2022/06/28 01:51:29;;;;;;;4.90;4.00;;;;;;;15.82;66.11;102017.34;4977262;28;20078;-66
2022/06/28 01:53:54;;;;;;;4.57;4.03;;;;;;;15.77;65.96;102017.31;4992069;28;20068;-66
2022/06/28 01:56:20;;;;;;;6.80;4.43;;;;;;;15.77;65.90;102014.50;4975440;28;20031;-66
2022/06/28 01:58:45;;;;;;;5.28;4.32;;;;;;;15.74;65.93;102017.81;4976509;28;20109;-66
2022/06/28 02:01:10;;;;;;;5.20;4.20;;;;;;;15.74;65.91;102017.81;4972884;28;20494;-66
2022/06/28 02:03:36;;;;;;;6.60;4.38;;;;;;;15.67;65.82;102014.34;4976447;28;20034;-66
2022/06/28 02:06:01;;;;;;;4.82;4.32;;;;;;;15.66;66.05;102019.09;4985130;28;20023;-66
2022/06/28 02:08:26;;;;;;;8.57;4.18;;;;;;;15.69;65.75;102015.78;4980463;28;20042;-66
2022/06/28 02:10:52;;;;;;;5.07;3.95;;;;;;;15.64;65.77;102014.81;4979492;28;20446;-66
2022/06/28 02:13:17;;;;;;;3.92;3.63;;;;;;;15.66;65.75;102015.47;4979385;28;20377;-66
2022/06/28 02:15:42;;;;;;;8.00;4.30;;;;;;;15.59;65.71;102012.81;4977504;28;20019;-66
2022/06/28 02:18:08;;;;;;;5.75;4.22;;;;;;;15.56;65.97;102021.75;4981185;28;20422;-66
2022/06/28 02:20:33;;;;;;;6.05;4.13;;;;;;;15.61;65.27;102026.56;4976398;28;20437;-66
2022/06/28 02:22:59;;;;;;;5.28;4.10;;;;;;;15.59;65.22;102032.41;4978040;28;20027;-66
2022/06/28 02:25:24;;;;;;;5.38;4.20;;;;;;;15.55;65.52;102030.38;4977800;28;20038;-66
2022/06/28 02:27:51;;;;;;;6.28;4.25;;;;;;;15.56;65.41;102037.66;4978389;28;20077;-66
2022/06/28 02:30:17;;;;;;;6.60;4.38;;;;;;;15.50;65.46;102035.91;4971341;28;20027;-66
2022/06/28 02:32:42;;;;;;;8.55;4.43;;;;;;;15.50;65.69;102039.56;4976025;28;20576;-66
2022/06/28 02:40:36;;;;;;;5.68;4.38;;;;;;;15.42;65.39;102052.03;4966456;28;20545;-66
2022/06/28 02:43:01;;;;;;;6.85;4.18;;;;;;;15.41;65.40;102055.94;4985741;28;20030;-66
2022/06/28 02:45:29;;;;;;;8.07;4.07;;;;;;;15.40;65.45;102057.03;4968344;28;20406;-66
2022/06/28 02:47:54;;;;;;;6.20;3.92;;;;;;;15.35;65.32;102067.28;4979947;28;20037;-66
2022/06/28 02:50:21;;;;;;;5.85;3.88;;;;;;;15.39;65.13;102065.69;4988512;28;20026;-66
2022/06/28 02:52:46;;;;;;;4.53;3.42;;;;;;;15.32;65.19;102067.81;4971712;28;20047;-66
2022/06/28 02:55:12;;;;;;;4.80;3.75;;;;;;;15.34;64.90;102068.41;4973105;28;20458;-66
2022/06/28 02:57:38;;;;;;;3.70;3.35;;;;;;;15.28;65.15;102069.41;4978251;28;20881;-66
2022/06/28 03:00:10;;;;;;;4.88;3.45;;;;;;;15.30;65.38;102076.47;4981978;28;20433;-66
2022/06/28 03:02:37;;;;;;;7.15;3.53;;;;;;;15.28;65.19;102084.25;4965786;28;20059;-66
2022/06/28 03:05:07;;;;;;;3.72;3.42;;;;;;;15.25;65.18;102087.56;4966285;28;20049;-66
2022/06/28 03:07:32;;;;;;;3.58;3.28;;;;;;;15.25;65.35;102090.38;4973709;28;20088;-66
2022/06/28 03:09:57;;;;;;;5.72;3.53;;;;;;;15.27;64.99;102082.56;4982408;28;20064;-66
2022/06/28 03:12:23;;;;;;;3.88;3.33;;;;;;;15.23;65.07;102085.00;4976879;28;20109;-66
2022/06/28 03:14:48;;;;;;;4.35;3.22;;;;;;;15.19;65.20;102091.38;4984566;28;20117;-66
2022/06/28 03:17:13;;;;;;;6.90;3.55;;;;;;;15.18;65.10;102084.09;4972939;28;20029;-66
2022/06/28 03:19:39;;;;;;;5.05;3.20;;;;;;;15.15;65.19;102091.03;4980012;28;20039;-66
2022/06/28 03:22:04;;;;;;;4.20;3.22;;;;;;;15.13;65.26;102086.78;4974483;28;20031;-66
2022/06/28 03:24:29;;;;;;;4.32;3.35;;;;;;;15.11;65.28;102097.41;4972984;28;20099;-66
2022/06/28 03:26:54;;;;;;;6.20;3.15;;;;;;;15.10;64.99;102092.91;4973055;28;20035;-66
2022/06/28 03:29:20;;;;;;;4.65;3.10;;;;;;;15.09;65.20;102105.16;4976009;28;20045;-66
2022/06/28 03:31:45;;;;;;;6.93;4.13;;;;;;;15.00;65.44;102101.09;4972759;28;20027;-66
2022/06/28 03:34:11;;;;;;;4.88;3.55;;;;;;;15.03;65.40;102097.81;4969971;28;20023;-66
2022/06/28 03:36:36;;;;;;;4.97;3.40;;;;;;;15.04;65.31;102105.09;4965263;28;20034;-66
2022/06/28 03:39:02;;;;;;;5.82;3.42;;;;;;;14.98;65.24;102109.75;4972475;28;20040;-66
2022/06/28 03:41:27;;;;;;;4.18;3.40;;;;;;;14.97;65.30;102103.31;4977204;28;20035;-66
2022/06/28 03:43:53;;;;;;;6.22;3.38;;;;;;;14.96;65.25;102112.78;4978558;28;20037;-66
2022/06/28 03:46:19;;;;;;;9.90;3.28;;;;;;;14.95;65.36;102113.06;4982251;28;20042;-66
2022/06/28 03:48:46;;;;;;;6.90;3.58;;;;;;;14.94;65.32;102109.41;4960948;28;20482;-66
2022/06/28 03:51:11;;;;;;;6.53;3.85;;;;;;;14.95;65.29;102119.47;4970553;28;20041;-65
2022/06/28 03:53:37;;;;;;;5.93;3.20;;;;;;;14.98;65.25;102112.56;4961684;28;20026;-66
2022/06/28 03:56:02;;;;;;;9.75;3.45;;;;;;;14.97;65.07;102108.91;4977059;28;20042;-66
2022/06/28 03:58:28;;;;;;;7.47;3.58;;;;;;;14.92;65.14;102114.38;4993072;28;20073;-66
2022/06/28 04:00:53;;;;;;;7.13;3.22;;;;;;;14.89;65.41;102109.28;4983060;28;20023;-66
2022/06/28 04:03:19;;;;;;;6.38;3.17;;;;;;;14.92;65.06;102103.22;4966092;28;20074;-66
2022/06/28 04:05:44;;;;;;;7.15;3.55;;;;;;;14.91;65.25;102112.69;4974423;28;20117;-66
2022/06/28 04:08:09;;;;;;;7.38;3.25;;;;;;;14.88;65.28;102107.59;4979183;28;20500;-66
2022/06/28 04:10:35;;;;;;;6.18;3.10;;;;;;;14.88;65.19;102112.34;4972246;28;20426;-66
2022/06/28 04:13:01;;;;;;;7.78;2.85;;;;;;;14.84;65.22;102117.59;4971851;28;20037;-66
2022/06/28 04:15:29;;;;;;;7.63;3.08;;;;;;;14.90;64.98;102113.81;4984624;28;20473;-66
2022/06/28 04:17:54;;;;;;;7.00;3.20;;;;;;;14.87;65.34;102108.72;4970055;28;20038;-66
2022/06/28 04:20:19;;;;;;;7.13;3.20;;;;;;;14.94;64.96;102108.56;4969677;28;20023;-66
2022/06/28 04:22:45;;;;;;;6.07;3.03;;;;;;;14.91;65.27;102112.69;4962069;28;20053;-66
2022/06/28 04:25:10;;;;;;;5.30;3.30;;;;;;;14.90;65.10;102115.75;4965086;28;20035;-66
2022/06/28 04:27:36;;;;;;;6.15;3.00;;;;;;;14.92;65.28;102108.78;4970443;28;20026;-66
2022/06/28 04:30:03;;;;;;;7.30;3.08;;;;;;;14.90;64.95;102113.81;4975479;28;20037;-66
2022/06/28 04:32:28;;;;;;;6.57;3.10;;;;;;;14.92;65.33;102125.56;4973792;28;21081;-66
2022/06/28 04:34:54;;;;;;;10.65;2.80;;;;;;;14.92;65.27;102125.56;4976549;28;20023;-66
2022/06/28 04:37:19;;;;;;;5.00;2.45;;;;;;;14.93;65.14;102120.81;4969403;28;20034;-66
2022/06/28 04:39:44;;;;;;;5.70;2.58;;;;;;;14.95;64.89;102119.47;4974995;28;20046;-66
2022/06/28 04:42:09;;;;;;;7.15;2.92;;;;;;;14.97;65.32;102111.72;4974976;28;20056;-66
2022/06/28 04:44:35;;;;;;;5.95;2.72;;;;;;;14.98;64.99;102115.34;4977234;28;20018;-66
2022/06/28 04:47:01;;;;;;;8.02;3.15;;;;;;;15.04;65.31;102111.53;4967566;28;20035;-66
2022/06/28 04:49:26;;;;;;;8.70;3.55;;;;;;;14.98;65.14;102107.81;4977494;28;20022;-66
2022/06/28 04:51:51;;;;;;;5.38;2.90;;;;;;;15.06;64.84;102114.09;4963886;28;20181;-66
2022/06/28 04:54:17;;;;;;;6.88;2.95;;;;;;;15.05;64.93;102123.56;4972688;28;20038;-66
2022/06/28 04:56:42;;;;;;;5.40;2.83;;;;;;;15.17;64.76;102124.34;4962168;28;20035;-67
2022/06/28 04:59:07;;;;;;;5.72;3.17;;;;;;;15.11;64.82;102122.56;4965635;28;20031;-67
2022/06/28 05:01:32;;;;;;;5.03;2.97;;;;;;;15.18;65.14;102120.44;4983221;28;20479;-68
2022/06/28 05:03:58;;;;;;;6.38;2.60;;;;;;;15.22;64.87;102119.69;4969460;28;20086;-68
2022/06/28 05:06:23;;;;;;;2.10;1.83;;;;;;;15.44;69.90;102119.78;4974887;28;20030;-67
2022/06/28 05:08:48;;;;;;;5.82;2.25;;;;;;;15.65;70.17;102120.97;4979915;28;20125;-66
2022/06/28 05:11:14;;;;;;;3.78;2.10;;;;;;;15.85;71.04;102128.84;4971090;28;20801;-67
2022/06/28 05:13:39;;;;;;;4.53;2.33;;;;;;;16.00;69.73;102125.41;4972566;28;20042;-66
2022/06/28 05:16:04;;;;;;;5.75;2.13;;;;;;;16.14;68.74;102128.66;4972559;28;20026;-66
2022/06/28 05:18:30;;;;;;;3.38;1.90;;;;;;;16.26;68.24;102129.38;4977607;28;20026;-66
2022/06/28 05:20:55;;;;;;;7.95;2.58;;;;;;;16.32;66.92;102127.50;4966835;28;20170;-66
2022/06/28 05:23:20;;;;;;;6.72;2.35;;;;;;;16.40;66.02;102127.91;4969661;28;20045;-66
2022/06/28 05:25:45;;;;;;;5.95;2.08;;;;;;;16.52;65.88;102124.13;4969846;28;20042;-65
2022/06/28 05:28:11;;;;;;;6.10;2.13;;;;;;;16.60;65.12;102123.66;4981166;28;20466;-66
2022/06/28 05:30:36;;;;;;;4.30;2.35;;;;;;;16.68;64.81;102115.59;4969172;28;20037;-66
2022/06/28 05:33:03;;;;;;;7.20;2.38;;;;;;;16.74;63.44;102119.38;4964576;28;20470;-66
2022/06/28 05:35:29;;;;;;;7.85;2.45;;;;;;;16.79;64.31;102112.97;4964792;28;20035;-66
2022/06/28 05:37:54;;;;;;;6.78;2.22;;;;;;;16.89;64.04;102108.28;4979047;28;20041;-65
2022/06/28 05:40:19;;;;;;;6.18;1.90;;;;;;;17.02;63.29;102114.59;4976114;28;20030;-67
2022/06/28 05:42:45;;;;;;;5.97;2.10;;;;;;;17.08;62.38;102107.91;4976295;28;20043;-66
2022/06/28 05:45:10;;;;;;;5.53;1.77;;;;;;;17.13;62.39;102100.41;4974026;28;20019;-69
2022/06/28 05:47:35;;;;;;;7.50;1.90;;;;;;;17.23;62.57;102107.22;4972206;28;20128;-66
2022/06/28 05:50:01;;;;;;;7.60;2.10;;;;;;;17.25;62.09;102103.03;4968035;28;20138;-67
2022/06/28 05:52:26;;;;;;;5.28;1.70;;;;;;;17.35;61.62;102103.09;4956548;28;20046;-67
2022/06/28 05:54:51;;;;;;;4.95;1.70;;;;;;;17.38;62.12;102102.56;4965398;28;20023;-64
2022/06/28 05:57:17;;;;;;;5.70;1.67;;;;;;;17.46;61.81;102098.41;4967780;28;20382;-63
2022/06/28 05:59:42;;;;;;;7.50;1.90;;;;;;;17.52;61.64;102094.50;4973183;28;20031;-67
2022/06/28 06:02:07;;;;;;;7.05;2.05;;;;;;;17.57;61.52;102085.31;4972012;28;20014;-65
2022/06/28 06:04:32;;;;;;;4.88;1.90;;;;;;;17.62;60.76;102093.75;4973185;28;20027;-65
2022/06/28 06:06:58;;;;;;;7.40;2.10;;;;;;;17.67;60.72;102096.59;4978209;28;20046;-65
2022/06/28 06:09:23;;;;;;;7.13;1.88;;;;;;;17.73;60.56;102101.13;4972737;28;20069;-65
2022/06/28 06:11:48;;;;;;;5.43;1.70;;;;;;;17.74;60.01;102101.97;4971224;28;20126;-64
2022/06/28 06:14:16;;;;;;;7.28;1.77;;;;;;;17.87;60.17;102104.31;4971864;28;20030;-65
2022/06/28 06:16:42;;;;;;;6.13;1.92;;;;;;;17.85;59.57;102106.56;4972686;28;20035;-64
2022/06/28 06:19:07;;;;;;;9.20;2.20;;;;;;;17.92;59.58;102098.75;4965153;28;20035;-64
2022/06/28 06:21:32;;;;;;;6.43;2.25;;;;;;;17.85;59.27;102115.84;4971695;28;20114;-67
2022/06/28 06:23:57;;;;;;;10.23;2.60;;;;;;;17.85;58.57;102106.56;4974162;28;20042;-67
2022/06/28 06:26:24;;;;;;;5.00;1.65;;;;;;;18.12;59.50;102112.06;4976808;28;20025;-70
2022/06/28 06:28:50;;;;;;;7.03;1.70;;;;;;;18.18;59.19;102108.16;4971509;28;20041;-69
2022/06/28 06:31:15;;;;;;;7.22;1.90;;;;;;;18.23;58.83;102112.94;4968839;28;21690;-69
2022/06/28 06:33:40;;;;;;;6.80;2.08;;;;;;;18.33;58.40;102113.00;4976993;28;20030;-69
2022/06/28 06:36:06;;;;;;;6.93;1.88;;;;;;;18.30;58.03;102113.53;4987420;28;20022;-69
2022/06/28 06:38:31;;;;;;;8.52;2.20;;;;;;;18.35;57.74;102110.75;4981747;28;20073;-69
2022/06/28 06:40:58;;;;;;;9.35;2.40;;;;;;;18.42;57.71;102116.13;4981484;28;20423;-69
2022/06/28 06:43:26;;;;;;;9.27;1.90;;;;;;;18.39;57.45;102123.13;4988600;28;20033;-69
2022/06/28 06:45:51;;;;;;;8.23;1.80;;;;;;;18.57;57.33;102124.59;4986815;28;20027;-69
2022/06/28 06:48:17;;;;;;;10.02;2.00;;;;;;;18.62;57.03;102122.66;4993900;28;20042;-69
2022/06/28 06:50:42;;;;;;;9.98;1.90;;;;;;;18.68;56.62;102122.69;4992612;28;20105;-69
2022/06/28 06:53:09;;;;;;;63.08;4.40;;;;;;;18.85;57.48;102124.16;4993619;28;20057;-69
2022/06/28 06:55:34;;;;;;;7.20;1.90;;;;;;;18.83;56.03;102123.59;4983619;28;20033;-69
2022/06/28 06:58:00;;;;;;;7.40;2.03;;;;;;;18.84;55.72;102124.44;4992995;28;20374;-69
2022/06/28 07:00:25;;;;;;;9.80;2.20;;;;;;;18.86;55.29;102131.50;4993504;28;20014;-69
2022/06/28 07:02:50;;;;;;;8.00;1.83;;;;;;;18.94;55.28;102130.06;4984112;28;20023;-69
2022/06/28 07:05:15;;;;;;;10.20;2.60;;;;;;;19.04;54.88;102134.88;4987359;28;20030;-69
2022/06/28 07:07:41;;;;;;;6.10;1.67;;;;;;;19.11;54.56;102132.66;4993297;28;20144;-69
2022/06/28 07:10:06;;;;;;;7.78;1.80;;;;;;;19.21;54.38;102134.63;4993375;28;20492;-69
2022/06/28 07:12:32;;;;;;;6.93;2.00;;;;;;;19.23;54.01;102140.81;4992125;28;20037;-70
2022/06/28 07:14:57;;;;;;;4.82;2.00;;;;;;;19.24;53.97;102140.53;4993285;28;20033;-69
2022/06/28 07:17:23;;;;;;;6.93;1.83;;;;;;;19.28;53.23;102138.84;4982089;28;20066;-69
2022/06/28 07:19:48;;;;;;;5.15;1.40;;;;;;;19.31;53.34;102132.66;4983951;28;20114;-70
2022/06/28 07:22:13;;;;;;;4.30;1.50;;;;;;;19.38;53.46;102127.59;4992218;28;20068;-69
2022/06/28 07:24:39;;;;;;;4.93;1.75;;;;;;;19.28;53.23;102130.41;4992042;28;20026;-69
2022/06/28 07:27:04;;;;;;;5.57;1.77;;;;;;;19.51;52.86;102128.16;4986848;28;20113;-69
2022/06/28 07:29:30;;;;;;;9.27;1.80;;;;;;;19.56;52.79;102133.78;4969727;28;20034;-72
2022/06/28 07:31:56;;;;;;;4.22;1.30;;;;;;;19.62;52.81;102138.31;4978772;28;20541;-72
2022/06/28 07:34:22;;;;;;;4.82;1.73;;;;;;;19.69;52.04;102127.63;4988187;28;20035;-70
2022/06/28 07:36:47;;;;;;;7.47;1.52;;;;;;;19.76;51.81;102135.75;4969376;28;20429;-71
2022/06/28 07:39:13;;;;;;;7.35;2.15;;;;;;;19.79;51.85;102133.22;4976989;28;20156;-71
2022/06/28 07:41:38;;;;;;;5.43;1.60;;;;;;;19.73;51.62;102131.53;4987960;28;20030;-68
2022/06/28 07:44:03;;;;;;;5.97;1.63;;;;;;;19.75;51.72;102137.72;4968019;28;20117;-69
2022/06/28 07:46:29;;;;;;;3.70;1.73;;;;;;;19.78;51.52;102125.91;4972310;28;20146;-73
2022/06/28 07:48:54;;;;;;;4.78;1.70;;;;;;;19.83;51.69;102137.16;4980229;28;20389;-70
2022/06/28 07:54:04;;;;;;;22.75;9.38;;;;;;;19.94;52.57;102132.34;4963438;28;20045;-69
2022/06/28 07:56:30;;;;;;;11.70;5.43;;;;;;;20.06;52.19;102134.84;4970856;28;20027;-69
2022/06/28 07:58:56;;;;;;;14.98;6.55;;;;;;;19.94;51.92;102137.13;4968716;28;20043;-68
2022/06/28 08:01:21;;;;;;;14.00;5.63;;;;;;;20.09;52.02;102126.66;4968936;28;20137;-65
2022/06/28 08:03:47;;;;;;;16.05;5.80;;;;;;;20.21;52.00;102131.16;4974353;28;20065;-68
2022/06/28 08:06:13;;;;;;;8.55;2.88;;;;;;;20.08;50.01;102124.13;4985310;28;20471;-68
2022/06/28 08:08:38;;;;;;;7.80;3.42;;;;;;;20.15;49.46;102116.22;4970102;28;20047;-68
2022/06/28 08:11:03;;;;;;;9.35;2.22;;;;;;;20.06;48.97;102132.03;4973019;28;20097;-68
2022/06/28 08:13:29;;;;;;;7.45;2.38;;;;;;;20.13;49.22;102129.75;4972221;28;20541;-69
2022/06/28 08:15:54;;;;;;;6.78;2.38;;;;;;;20.14;49.90;102131.44;4986505;28;20505;-69
2022/06/28 08:18:20;;;;;;;8.10;2.03;;;;;;;20.13;49.38;102126.94;4978167;28;20146;-69
2022/06/28 08:20:45;;;;;;;8.40;2.22;;;;;;;20.16;49.00;102111.41;4986645;28;20037;-70
2022/06/28 08:23:11;;;;;;;7.20;1.92;;;;;;;20.21;48.91;102111.41;4986271;28;20034;-69
2022/06/28 08:25:37;;;;;;;5.05;1.85;;;;;;;20.31;49.41;102103.72;4970815;28;20022;-70
2022/06/28 08:28:03;;;;;;;8.40;1.90;;;;;;;20.33;48.79;102104.31;4979246;28;20112;-69
2022/06/28 08:30:28;;;;;;;4.28;1.60;;;;;;;20.35;48.93;102098.38;4969797;28;20031;-69
2022/06/28 08:32:55;;;;;;;3.75;1.30;;;;;;;20.39;48.75;102093.00;4979975;28;20033;-69
2022/06/28 08:35:20;;;;;;;5.63;1.70;;;;;;;20.48;48.02;102094.94;4986259;28;20113;-69
2022/06/28 08:37:46;;;;;;;4.78;1.40;;;;;;;20.52;48.28;102098.91;4978269;28;20165;-70
2022/06/28 08:40:11;;;;;;;3.67;1.40;;;;;;;20.61;48.11;102101.94;4991707;28;20033;-69
2022/06/28 08:42:39;;;;;;;3.60;1.40;;;;;;;20.62;48.29;102094.31;4976717;28;20038;-69
2022/06/28 08:45:05;;;;;;;4.57;1.15;;;;;;;20.71;47.60;102093.44;4973442;28;20030;-69
2022/06/28 08:47:38;;;;;;;4.88;1.40;;;;;;;20.49;44.20;102087.34;4979823;28;20037;-69
2022/06/28 08:50:13;;;;;;;4.40;1.10;;;;;;;20.53;47.42;102085.63;4960481;28;20053;-69
2022/06/28 08:52:41;;;;;;;5.78;1.20;;;;;;;20.61;46.89;102081.34;4991231;28;20063;-69
2022/06/28 08:55:08;;;;;;;4.65;1.50;;;;;;;20.63;46.97;102085.56;4975933;28;20027;-67
2022/06/28 08:57:35;;;;;;;4.03;1.33;;;;;;;20.72;47.04;102083.81;4970353;28;20027;-68
2022/06/28 09:00:01;;;;;;;5.10;1.30;;;;;;;;;;4991730;28;20030;-68
2022/06/28 09:02:26;;;;;;;4.45;1.00;;;;;;;20.85;46.83;102090.78;4975607;28;20419;-69
2022/06/28 09:04:53;;;;;;;6.75;1.27;;;;;;;20.75;44.85;102086.06;4982431;28;20085;-68
2022/06/28 09:07:22;;;;;;;4.05;1.25;;;;;;;20.88;46.16;102090.22;4983115;28;20035;-68
2022/06/28 09:09:48;;;;;;;4.38;1.38;;;;;;;20.90;46.09;102085.09;4975980;28;20038;-68
2022/06/28 09:12:14;;;;;;;5.75;1.30;;;;;;;20.99;45.69;102076.88;4978088;28;20040;-68
2022/06/28 09:14:39;;;;;;;5.43;1.30;;;;;;;20.91;44.34;102075.53;4974679;28;20093;-68
2022/06/28 09:17:28;;;;;;;3.53;1.00;;;;;;;20.96;46.36;102069.84;4969476;28;20098;-70
2022/06/28 09:20:13;;;;;;;4.50;1.10;;;;;;;21.06;46.87;102071.72;4975540;28;20589;-67
2022/06/28 09:22:41;;;;;;;8.43;1.45;;;;;;;21.05;45.61;102073.69;4983189;28;20046;-68
2022/06/28 09:25:12;;;;;;;5.25;1.10;;;;;;;20.98;44.66;102069.53;4980584;28;20027;-69
2022/06/28 09:27:40;;;;;;;3.15;1.10;;;;;;;21.08;45.63;102060.97;4980914;28;20470;-68
2022/06/28 09:30:12;;;;;;;5.05;1.27;;;;;;;21.12;46.18;102062.09;4976307;28;20514;-68
2022/06/28 09:32:38;;;;;;;;;;;;;;;21.17;47.85;102064.84;4968463;28;20037;-68
2022/06/28 09:35:11;;;;;;;3.15;1.00;;;;;;;21.23;45.87;102052.38;4979580;28;19918;-68
2022/06/28 09:37:37;;;;;;;4.47;1.00;;;;;;;21.29;46.10;102051.19;4975389;28;20085;-68
2022/06/28 09:40:17;;;;;;;3.17;1.33;;;;;;;21.31;46.40;102050.91;4990652;28;20050;-68
2022/06/28 09:42:46;;;;;;;4.50;1.10;;;;;;;21.23;44.48;102060.03;4975599;28;20045;-68
2022/06/28 09:45:15;;;;;;;3.78;1.30;;;;;;;21.29;44.84;102042.72;4986957;28;20041;-69
2022/06/28 09:47:47;;;;;;;4.10;1.00;;;;;;;21.35;45.77;102049.22;4988752;28;20470;-68
2022/06/28 09:50:13;;;;;;;;;;;;;;;21.43;47.22;102044.91;4976113;28;20478;-68
2022/06/28 09:52:42;;;;;;;3.13;0.77;;;;;;;21.50;45.73;102037.75;4979539;28;19922;-68
2022/06/28 09:55:08;;;;;;;7.32;1.33;;;;;;;21.54;45.54;102030.38;4973862;28;20035;-68
2022/06/28 09:57:34;;;;;;;4.90;1.00;;;;;;;21.59;45.65;102025.81;4979505;28;20063;-68
2022/06/28 10:00:00;;;;;;;4.38;1.33;;;;;;;21.69;45.42;102028.50;4973520;28;20467;-70
2022/06/28 10:02:27;;;;;;;5.13;1.02;;;;;;;21.67;44.82;102028.81;4974584;28;20073;-69
2022/06/28 10:04:52;;;;;;;4.55;1.00;;;;;;;21.62;43.69;102023.22;4985937;28;20065;-68
2022/06/28 10:07:18;;;;;;;4.20;1.10;;;;;;;21.68;46.16;102024.00;4989208;28;20465;-68
2022/06/28 10:09:45;;;;;;;4.85;1.30;;;;;;;21.71;45.23;102034.72;4983567;28;20035;-68
2022/06/28 10:15:08;;;;;;;3.75;1.27;;;;;;;21.77;45.81;102030.66;4974132;28;20042;-67
2022/06/28 10:17:36;;;;;;;3.72;1.15;;;;;;;21.85;45.17;102012.19;4985775;28;20031;-68
2022/06/28 10:20:06;;;;;;;3.63;1.35;;;;;;;21.91;45.76;102019.50;4978296;28;20038;-68
2022/06/28 10:22:31;;;;;;;7.93;2.33;;;;;;;21.91;45.08;102011.84;4971798;28;20489;-68
2022/06/28 10:24:58;;;;;;;4.90;1.48;;;;;;;22.08;46.59;102025.47;4985881;28;20023;-68
2022/06/28 10:27:25;;;;;;;9.88;4.75;;;;;;;22.12;45.69;102006.75;4963476;28;20114;-72
2022/06/28 10:30:09;;;;;;;6.13;1.38;;;;;;;22.04;45.09;102005.44;4991976;28;20038;-68
2022/06/28 10:32:48;;;;;;;3.53;1.17;;;;;;;22.07;45.60;102004.00;4969718;28;20030;-69
2022/06/28 10:35:52;;;;;;;4.28;1.20;;;;;;;22.04;45.56;102005.44;4987702;28;20054;-69
2022/06/28 10:38:17;;;;;;;4.45;1.40;;;;;;;22.04;44.36;101993.31;4971845;28;20098;-70
2022/06/28 10:40:45;;;;;;;3.28;1.27;;;;;;;22.05;43.85;101989.34;4987157;28;20046;-68
2022/06/28 10:43:11;;;;;;;3.40;1.15;;;;;;;22.01;43.81;101985.44;4970878;28;20088;-70
2022/06/28 10:46:04;;;;;;;6.85;1.20;;;;;;;22.09;45.17;101990.44;4975932;28;20031;-69
2022/06/28 10:48:31;;;;;;;5.43;1.20;;;;;;;22.18;45.95;101997.09;4977004;28;20046;-69
2022/06/28 10:50:58;;;;;;;3.97;1.35;;;;;;;22.21;44.14;101988.03;4984694;28;20050;-69
2022/06/28 10:53:25;;;;;;;3.03;1.30;;;;;;;22.24;44.84;101987.41;4980355;28;20053;-71
2022/06/28 10:56:15;;;;;;;3.63;1.17;;;;;;;22.20;44.67;101972.19;4972220;28;20393;-71
2022/06/28 10:58:57;;;;;;;4.57;1.05;;;;;;;22.30;44.35;101966.38;4984459;28;20401;-71
2022/06/28 11:01:40;;;;;;;5.20;1.10;;;;;;;22.42;45.07;101971.59;4975586;28;20118;-71
2022/06/28 11:04:12;;;;;;;4.63;1.15;;;;;;;22.41;43.84;101971.91;4970911;28;20039;-71
2022/06/28 11:06:43;;;;;;;2.92;1.25;;;;;;;22.38;43.16;101975.34;4980555;28;20023;-72
2022/06/28 11:09:15;;;;;;;4.55;1.50;;;;;;;22.42;44.51;101965.09;4973190;28;20501;-70
2022/06/28 11:12:04;;;;;;;;;;;;;;;22.46;45.77;101966.16;4974528;28;20105;-69
2022/06/28 11:14:31;;;;;;;3.75;1.20;;;;;;;22.44;43.30;101951.47;4976366;28;19925;-69
2022/06/28 11:16:56;;;;;;;2.25;0.98;;;;;;;22.52;44.07;101945.13;4973775;28;20034;-68
2022/06/28 11:19:23;;;;;;;2.90;0.90;;;;;;;22.56;44.06;101946.19;4974141;28;20035;-68
2022/06/28 11:21:54;;;;;;;2.67;1.10;;;;;;;22.66;44.55;101946.00;4978215;28;20074;-63
2022/06/28 11:24:20;;;;;;;3.83;0.90;;;;;;;22.63;42.80;101954.28;4977390;28;20053;-68
2022/06/28 11:29:30;;;;;;;3.20;0.98;;;;;;;22.77;43.53;101949.53;4970877;28;20122;-68
2022/06/28 11:31:55;;;;;;;4.50;1.10;;;;;;;22.88;43.95;101941.69;4983454;28;20022;-68
2022/06/28 11:34:27;;;;;;;2.97;1.00;;;;;;;22.85;42.66;101931.00;4973711;28;20026;-63
2022/06/28 11:36:59;;;;;;;4.80;0.95;;;;;;;22.93;43.17;101931.16;4969985;28;20034;-66
2022/06/28 11:39:25;;;;;;;4.45;1.10;;;;;;;23.02;43.28;101932.09;4971755;28;20038;-68